Time;durP1;ratioP1;P1;durP2;ratioP2;P2;SDS_P1;SDS_P2;PMS_P1;PMS_P2;Temp;Humidity;BMP_temperature;BMP_pressure;BME280_temperature;BME280_humidity;BME280_pressure;Samples;Min_cycle;Max_cycle;Signal;HPM_P1;HPM_P2
2022/08/22 00:00:55;;;;;;;3.47;3.20;;;16.50;99.90;;;;;;5056468;28;20205;-86
2022/08/22 00:03:34;;;;;;;3.92;3.63;;;16.40;99.90;;;;;;5056612;28;20209;-86
2022/08/22 00:06:14;;;;;;;4.70;4.30;;;16.40;99.90;;;;;;5056256;28;20209;-86
2022/08/22 00:08:52;;;;;;;4.07;3.78;;;16.40;99.90;;;;;;5056016;28;20231;-85
2022/08/22 00:11:28;;;;;;;4.63;4.25;;;16.40;99.90;;;;;;5056801;28;20347;-85
2022/08/22 00:14:04;;;;;;;4.13;3.70;;;16.40;99.90;;;;;;5056214;28;20265;-87
2022/08/22 00:16:44;;;;;;;4.35;3.95;;;16.40;99.90;;;;;;5056123;28;20265;-87
2022/08/22 00:19:21;;;;;;;4.43;4.03;;;16.40;99.90;;;;;;5056161;28;20269;-87
2022/08/22 00:21:58;;;;;;;3.47;3.28;;;16.40;99.90;;;;;;5055683;28;20248;-87
2022/08/22 00:24:32;;;;;;;4.15;3.67;;;16.30;99.90;;;;;;5056417;28;20210;-87
2022/08/22 00:27:04;;;;;;;3.80;3.53;;;16.30;99.90;;;;;;5055657;28;20269;-86
2022/08/22 00:29:38;;;;;;;3.60;3.40;;;16.30;99.90;;;;;;5055612;28;20225;-86
2022/08/22 00:32:13;;;;;;;4.05;3.67;;;16.20;99.90;;;;;;5056072;28;20229;-86
2022/08/22 00:34:48;;;;;;;3.42;3.22;;;16.20;99.90;;;;;;5055927;28;20240;-87
2022/08/22 00:37:23;;;;;;;5.00;4.60;;;16.20;99.90;;;;;;5055920;28;20213;-87
2022/08/22 00:39:58;;;;;;;3.58;3.38;;;16.20;99.90;;;;;;5055657;28;20197;-87
2022/08/22 00:42:52;;;;;;;3.78;3.47;;;16.20;99.90;;;;;;5055380;28;20230;-87
2022/08/22 00:45:54;;;;;;;3.15;2.95;;;16.20;99.90;;;;;;5055639;28;20208;-87
2022/08/22 00:49:02;;;;;;;5.47;4.45;;;16.20;99.90;;;;;;5055758;28;20249;-87
2022/08/22 00:52:08;;;;;;;3.10;2.90;;;16.20;99.90;;;;;;5055752;28;20309;-87
2022/08/22 00:54:53;;;;;;;5.18;4.68;;;16.20;99.90;;;;;;5046414;28;20297;-87
2022/08/22 00:57:43;;;;;;;4.47;4.18;;;16.20;99.90;;;;;;5055478;28;20201;-87
2022/08/22 01:00:16;;;;;;;3.80;3.50;;;16.20;99.90;;;;;;5055171;28;20212;-86
2022/08/22 01:03:22;;;;;;;4.43;4.03;;;16.10;99.90;;;;;;5054376;28;20324;-87
2022/08/22 01:06:04;;;;;;;3.85;3.53;;;16.10;99.90;;;;;;5055227;28;20240;-87
2022/08/22 01:08:49;;;;;;;3.72;3.42;;;16.00;99.90;;;;;;5054535;28;20308;-87
2022/08/22 01:11:51;;;;;;;3.55;3.30;;;16.00;99.90;;;;;;5055227;28;20305;-87
2022/08/22 01:14:37;;;;;;;3.67;3.35;;;16.00;99.90;;;;;;5055114;28;20288;-87
2022/08/22 01:17:36;;;;;;;3.17;2.97;;;16.10;99.90;;;;;;5055340;28;20213;-87
2022/08/22 01:20:35;;;;;;;3.35;3.15;;;16.00;99.90;;;;;;5054895;28;20236;-87
2022/08/22 01:23:35;;;;;;;3.78;3.47;;;16.00;99.90;;;;;;5054922;28;20296;-87
2022/08/22 01:26:40;;;;;;;3.72;3.42;;;16.00;99.90;;;;;;5055207;28;20210;-87
2022/08/22 01:29:53;;;;;;;2.70;2.58;;;16.00;99.90;;;;;;5054483;28;20213;-87
2022/08/22 01:32:48;;;;;;;3.00;2.80;;;16.00;99.90;;;;;;5054952;28;20233;-88
2022/08/22 01:35:51;;;;;;;3.22;3.03;;;16.00;99.90;;;;;;5054667;28;20233;-87
2022/08/22 01:38:54;;;;;;;2.75;2.55;;;16.00;99.90;;;;;;5053202;28;20296;-87
2022/08/22 01:41:54;;;;;;;3.05;2.85;;;16.00;99.90;;;;;;5049048;28;20232;-87
2022/08/22 01:44:54;;;;;;;2.70;2.50;;;15.90;99.90;;;;;;5049021;28;20261;-87
2022/08/22 01:47:26;;;;;;;2.78;2.58;;;15.90;99.90;;;;;;5054393;28;20285;-88
2022/08/22 01:50:09;;;;;;;3.00;2.80;;;15.90;99.90;;;;;;5053929;28;20225;-87
2022/08/22 01:52:43;;;;;;;2.38;2.25;;;15.90;99.90;;;;;;5054186;28;20312;-87
2022/08/22 01:55:19;;;;;;;2.97;2.78;;;15.90;99.90;;;;;;5054479;28;20209;-87
2022/08/22 01:57:53;;;;;;;1.92;1.83;;;15.90;99.90;;;;;;5054443;28;20224;-87
2022/08/22 02:00:24;;;;;;;2.92;2.67;;;15.90;99.90;;;;;;5054246;28;20284;-87
2022/08/22 02:03:19;;;;;;;4.88;2.55;;;15.90;99.90;;;;;;5054403;28;20207;-87
2022/08/22 02:05:54;;;;;;;2.33;2.22;;;15.90;99.90;;;;;;5053939;28;20209;-87
2022/08/22 02:08:33;;;;;;;2.58;2.38;;;15.80;99.90;;;;;;5054089;28;20215;-87
2022/08/22 02:11:05;;;;;;;2.30;2.20;;;15.80;99.90;;;;;;5054330;28;20300;-87
2022/08/22 02:13:54;;;;;;;2.97;2.78;;;15.80;99.90;;;;;;5053979;28;20210;-87
2022/08/22 02:16:32;;;;;;;2.67;2.58;;;15.80;99.90;;;;;;5053652;28;20280;-87
2022/08/22 02:19:18;;;;;;;3.17;2.97;;;15.80;99.90;;;;;;5054082;28;20240;-87
2022/08/22 02:21:52;;;;;;;2.65;2.45;;;15.80;99.90;;;;;;5053980;28;20236;-87
2022/08/22 02:24:43;;;;;;;2.58;2.42;;;15.70;99.90;;;;;;5054000;28;20213;-87
2022/08/22 02:27:22;;;;;;;2.42;2.33;;;15.80;99.90;;;;;;5054108;28;20292;-87
2022/08/22 02:30:08;;;;;;;2.85;2.65;;;15.70;99.90;;;;;;5053580;28;20263;-87
2022/08/22 02:32:51;;;;;;;2.75;2.55;;;15.70;99.90;;;;;;5053463;28;20234;-88
2022/08/22 02:35:27;;;;;;;3.58;3.28;;;15.70;99.90;;;;;;5053662;28;20308;-87
2022/08/22 02:38:06;;;;;;;3.30;2.63;;;15.80;99.90;;;;;;5053810;28;20265;-88
2022/08/22 02:40:41;;;;;;;3.63;3.33;;;15.80;99.90;;;;;;5053525;28;20208;-88
2022/08/22 02:43:17;;;;;;;3.75;3.45;;;15.70;99.90;;;;;;5053099;28;20292;-88
2022/08/22 02:45:50;;;;;;;3.30;3.00;;;15.80;99.90;;;;;;5053312;28;20284;-86
2022/08/22 02:48:36;;;;;;;2.95;2.75;;;15.80;99.90;;;;;;5053418;28;20210;-87
2022/08/22 02:51:12;;;;;;;3.75;3.45;;;15.80;99.90;;;;;;5053118;28;20233;-88
2022/08/22 02:53:51;;;;;;;3.28;2.80;;;15.80;99.90;;;;;;5053710;28;20235;-85
2022/08/22 02:56:26;;;;;;;2.85;2.65;;;15.70;99.90;;;;;;5053345;28;20228;-86
2022/08/22 02:59:16;;;;;;;3.25;3.05;;;15.80;99.90;;;;;;5052963;28;20209;-86
2022/08/22 03:01:47;;;;;;;6.45;2.75;;;15.80;99.90;;;;;;5052958;28;20313;-86
2022/08/22 03:04:44;;;;;;;2.83;2.63;;;15.70;99.90;;;;;;5053167;28;20205;-88
2022/08/22 03:07:25;;;;;;;3.58;2.75;;;15.70;99.90;;;;;;5052877;28;20236;-86
2022/08/22 03:10:02;;;;;;;3.25;2.67;;;15.70;99.90;;;;;;5052490;28;20245;-86
2022/08/22 03:12:42;;;;;;;2.42;2.33;;;15.70;99.90;;;;;;5053060;28;20323;-87
2022/08/22 03:15:18;;;;;;;2.28;2.17;;;15.60;99.90;;;;;;5053281;28;20270;-86
2022/08/22 03:17:52;;;;;;;3.08;2.78;;;15.60;99.90;;;;;;5053329;28;20205;-87
2022/08/22 03:20:38;;;;;;;2.50;2.30;;;15.60;99.90;;;;;;5053114;28;20202;-87
2022/08/22 03:23:13;;;;;;;2.92;2.65;;;15.60;99.90;;;;;;5053067;28;20202;-87
2022/08/22 03:25:47;;;;;;;2.15;1.98;;;15.60;99.90;;;;;;5052345;28;20232;-86
2022/08/22 03:28:23;;;;;;;2.03;1.92;;;15.50;99.90;;;;;;5052786;28;20206;-86
2022/08/22 03:31:01;;;;;;;2.25;2.05;;;15.50;99.90;;;;;;5052297;28;20313;-87
2022/08/22 03:33:31;;;;;;;2.10;2.00;;;15.50;99.90;;;;;;5052768;28;20288;-86
2022/08/22 03:36:06;;;;;;;1.90;1.80;;;15.50;99.90;;;;;;5052705;28;20285;-86
2022/08/22 03:38:49;;;;;;;2.08;1.92;;;15.50;99.90;;;;;;5052782;28;20299;-86
2022/08/22 03:41:48;;;;;;;2.10;1.98;;;15.50;99.90;;;;;;5052626;28;20279;-87
2022/08/22 03:44:44;;;;;;;2.00;1.90;;;15.50;99.90;;;;;;5052441;28;20202;-87
2022/08/22 03:47:34;;;;;;;2.08;1.88;;;15.40;99.90;;;;;;5047315;28;20198;-88
2022/08/22 03:50:39;;;;;;;2.20;2.00;;;15.40;99.90;;;;;;5052301;28;20228;-88
2022/08/22 03:53:42;;;;;;;2.67;2.47;;;15.40;99.90;;;;;;5052807;28;20233;-87
2022/08/22 03:56:41;;;;;;;2.50;2.40;;;15.40;99.90;;;;;;5050837;28;20209;-87
2022/08/22 03:59:48;;;;;;;2.47;2.28;;;15.40;99.90;;;;;;5041647;28;20213;-85
2022/08/22 04:02:48;;;;;;;3.00;2.80;;;15.40;99.90;;;;;;5052664;28;20221;-86
2022/08/22 04:05:46;;;;;;;7.68;2.35;;;15.40;99.90;;;;;;5052403;28;20237;-88
2022/08/22 04:08:55;;;;;;;1.98;1.88;;;15.30;99.90;;;;;;5052645;28;20214;-88
2022/08/22 04:11:51;;;;;;;2.53;2.33;;;15.30;99.90;;;;;;5010573;28;20344;-87
2022/08/22 04:14:48;;;;;;;2.03;1.90;;;15.30;99.90;;;;;;5052235;28;20273;-88
2022/08/22 04:17:35;;;;;;;1.85;1.75;;;15.30;99.90;;;;;;5034973;28;20225;-87
2022/08/22 04:20:44;;;;;;;2.22;2.03;;;15.30;99.90;;;;;;5052114;28;20240;-87
2022/08/22 04:23:39;;;;;;;2.53;2.33;;;15.30;99.90;;;;;;5052458;28;20261;-86
2022/08/22 04:26:15;;;;;;;2.35;2.25;;;15.30;99.90;;;;;;5051578;28;20216;-87
2022/08/22 04:28:48;;;;;;;1.67;1.58;;;15.30;99.90;;;;;;5052216;28;20290;-87
2022/08/22 04:31:23;;;;;;;2.25;1.77;;;15.30;99.90;;;;;;5051881;28;20238;-86
2022/08/22 04:33:57;;;;;;;2.22;2.08;;;15.30;99.90;;;;;;5052183;28;20207;-86
2022/08/22 04:36:31;;;;;;;3.53;2.25;;;15.20;99.90;;;;;;5052235;28;20267;-86
2022/08/22 04:39:04;;;;;;;3.10;2.20;;;15.20;99.90;;;;;;5054507;28;20225;-86
2022/08/22 04:41:48;;;;;;;2.28;2.08;;;15.20;99.90;;;;;;5056115;28;20255;-87
2022/08/22 04:44:22;;;;;;;2.05;1.95;;;15.20;99.90;;;;;;5055876;28;20301;-87
2022/08/22 04:47:00;;;;;;;1.95;1.85;;;15.10;99.90;;;;;;5055529;28;20201;-86
2022/08/22 04:49:35;;;;;;;2.60;2.22;;;15.10;99.90;;;;;;5055234;28;20267;-86
2022/08/22 04:52:10;;;;;;;2.63;2.08;;;15.10;99.90;;;;;;5055283;28;20286;-86
2022/08/22 04:54:53;;;;;;;1.88;1.75;;;15.10;99.90;;;;;;5055894;28;20205;-86
2022/08/22 04:57:30;;;;;;;1.88;1.77;;;15.10;99.90;;;;;;5055636;28;20201;-86
2022/08/22 05:00:00;;;;;;;3.95;2.50;;;15.10;99.90;;;;;;5055354;28;20228;-87
2022/08/22 05:02:35;;;;;;;2.40;2.20;;;15.10;99.90;;;;;;5055596;28;20218;-86
2022/08/22 05:05:10;;;;;;;2.22;2.13;;;15.00;99.90;;;;;;5055630;28;20209;-86
2022/08/22 05:07:46;;;;;;;3.30;2.83;;;15.00;99.90;;;;;;5055479;28;20288;-86
2022/08/22 05:10:21;;;;;;;3.42;2.60;;;15.00;99.90;;;;;;5055100;28;20206;-85
2022/08/22 05:12:55;;;;;;;2.05;1.85;;;15.00;99.90;;;;;;5055518;28;20233;-85
2022/08/22 05:15:30;;;;;;;2.50;2.30;;;15.00;99.90;;;;;;5055134;28;20206;-84
2022/08/22 05:18:12;;;;;;;2.80;2.60;;;15.00;99.90;;;;;;5055323;28;20236;-86
2022/08/22 05:20:45;;;;;;;2.00;1.90;;;15.00;99.90;;;;;;5055179;28;20190;-85
2022/08/22 05:23:19;;;;;;;2.00;1.80;;;15.00;99.90;;;;;;5055658;28;20246;-86
2022/08/22 05:25:51;;;;;;;1.85;1.75;;;14.90;99.90;;;;;;5054862;28;20263;-87
2022/08/22 05:28:30;;;;;;;2.13;2.00;;;14.90;99.90;;;;;;5055084;28;20208;-86
2022/08/22 05:30:59;;;;;;;6.18;2.17;;;14.90;99.90;;;;;;5054219;28;20260;-87
2022/08/22 05:33:33;;;;;;;2.03;1.83;;;14.90;99.90;;;;;;5055205;28;20290;-87
2022/08/22 05:36:06;;;;;;;1.77;1.67;;;15.00;99.90;;;;;;5055126;28;20206;-86
2022/08/22 05:38:38;;;;;;;3.13;2.63;;;15.00;99.90;;;;;;5054752;28;20232;-86
2022/08/22 05:41:10;;;;;;;3.13;2.83;;;15.00;99.90;;;;;;5054589;28;20234;-86
2022/08/22 05:43:42;;;;;;;2.22;2.05;;;15.00;99.90;;;;;;5054408;28;20214;-86
2022/08/22 05:46:27;;;;;;;4.20;2.88;;;15.00;99.90;;;;;;5054799;28;20229;-86
2022/08/22 05:49:02;;;;;;;2.50;2.30;;;15.00;99.90;;;;;;5054286;28;20240;-87
2022/08/22 05:51:41;;;;;;;2.95;2.50;;;15.00;99.90;;;;;;5054314;28;20308;-87
2022/08/22 05:54:15;;;;;;;5.20;2.00;;;15.00;99.90;;;;;;5054580;28;20284;-87
2022/08/22 05:56:46;;;;;;;2.00;1.90;;;15.00;99.90;;;;;;5054328;28;20229;-87
2022/08/22 05:59:23;;;;;;;1.60;1.50;;;15.10;99.90;;;;;;5054216;28;20202;-87
2022/08/22 06:02:01;;;;;;;2.38;2.17;;;15.20;99.90;;;;;;5054384;28;20305;-86
2022/08/22 06:04:37;;;;;;;1.80;1.70;;;15.20;99.90;;;;;;5054600;28;20198;-87
2022/08/22 06:07:13;;;;;;;2.50;2.10;;;15.20;99.90;;;;;;5054430;28;20197;-87
2022/08/22 06:10:03;;;;;;;1.50;1.50;;;15.20;99.90;;;;;;5053902;28;20205;-86
2022/08/22 06:12:36;;;;;;;1.55;1.50;;;15.20;99.90;;;;;;5053778;28;20261;-86
2022/08/22 06:15:14;;;;;;;2.25;2.05;;;15.20;99.90;;;;;;5054247;28;20229;-87
2022/08/22 06:17:48;;;;;;;1.67;1.58;;;15.10;99.90;;;;;;5054550;28;20201;-87
2022/08/22 06:20:21;;;;;;;2.08;1.98;;;15.10;99.90;;;;;;5053633;28;20202;-86
2022/08/22 06:22:53;;;;;;;9.50;2.45;;;15.10;99.90;;;;;;5053718;28;20226;-86
2022/08/22 06:25:25;;;;;;;2.95;2.30;;;15.10;99.90;;;;;;5053961;28;20210;-87
2022/08/22 06:27:55;;;;;;;2.60;2.08;;;15.20;99.90;;;;;;5053858;28;20210;-87
2022/08/22 06:30:28;;;;;;;1.88;1.77;;;15.20;99.90;;;;;;5056185;28;20292;-86
2022/08/22 06:33:01;;;;;;;1.85;1.75;;;15.30;99.90;;;;;;5055132;28;20222;-87
2022/08/22 06:38:20;;;;;;;4.72;2.40;;;15.30;99.90;;;;;;5053566;28;20209;-86
2022/08/22 06:40:56;;;;;;;2.67;2.47;;;15.30;99.90;;;;;;5053891;28;20197;-87
2022/08/22 06:43:37;;;;;;;2.58;2.40;;;15.30;99.90;;;;;;5053594;28;20209;-87
2022/08/22 06:46:07;;;;;;;1.80;1.70;;;15.30;99.90;;;;;;5053534;28;20205;-86
2022/08/22 06:48:37;;;;;;;3.22;2.78;;;15.40;99.90;;;;;;5052954;28;20206;-87
2022/08/22 06:51:08;;;;;;;2.53;2.33;;;15.40;99.90;;;;;;5053174;28;20225;-86
2022/08/22 06:53:42;;;;;;;2.53;2.33;;;15.40;99.90;;;;;;5053555;28;20198;-86
2022/08/22 06:56:21;;;;;;;2.63;2.42;;;15.40;99.90;;;;;;5053716;28;20213;-86
2022/08/22 06:58:56;;;;;;;4.30;2.70;;;15.40;99.90;;;;;;5053211;28;20205;-87
2022/08/22 07:01:30;;;;;;;2.88;2.67;;;15.40;99.90;;;;;;5052564;28;20237;-86
2022/08/22 07:04:05;;;;;;;3.83;3.53;;;15.40;99.90;;;;;;5053516;28;20206;-86
2022/08/22 07:06:40;;;;;;;2.83;2.63;;;15.40;99.90;;;;;;5053336;28;20233;-86
2022/08/22 07:09:20;;;;;;;3.28;3.08;;;15.50;99.90;;;;;;5053252;28;20209;-86
2022/08/22 07:11:48;;;;;;;3.25;3.05;;;15.50;99.90;;;;;;5053008;28;20283;-85
2022/08/22 07:14:27;;;;;;;4.15;3.33;;;15.50;99.90;;;;;;5052744;28;20297;-86
2022/08/22 07:16:58;;;;;;;2.95;2.75;;;15.50;99.90;;;;;;5053067;28;20251;-87
2022/08/22 07:19:29;;;;;;;3.72;3.35;;;15.60;99.90;;;;;;5052625;28;20206;-86
2022/08/22 07:22:09;;;;;;;3.67;2.22;;;15.60;99.90;;;;;;5052938;28;20225;-85
2022/08/22 07:24:44;;;;;;;3.15;2.95;;;15.60;99.90;;;;;;5053012;28;20213;-86
2022/08/22 07:27:22;;;;;;;2.83;2.63;;;15.70;99.90;;;;;;5052920;28;20208;-86
2022/08/22 07:30:00;;;;;;;2.63;2.42;;;15.70;99.90;;;;;;5052607;28;20297;-86
2022/08/22 07:32:42;;;;;;;2.72;2.53;;;15.70;99.90;;;;;;5052241;28;20233;-86
2022/08/22 07:35:15;;;;;;;2.58;2.47;;;15.70;99.90;;;;;;5052685;28;20209;-87
2022/08/22 07:37:58;;;;;;;2.45;2.25;;;15.80;99.90;;;;;;5052910;28;20265;-86
2022/08/22 07:40:32;;;;;;;2.47;2.28;;;15.70;99.90;;;;;;5052616;28;20205;-85
2022/08/22 07:43:09;;;;;;;2.05;1.95;;;15.70;99.90;;;;;;5052559;28;20209;-86
2022/08/22 07:45:40;;;;;;;1.75;1.65;;;15.80;99.90;;;;;;5052375;28;20237;-86
2022/08/22 07:48:21;;;;;;;1.83;1.67;;;15.80;99.90;;;;;;5052213;28;20198;-87
2022/08/22 07:51:04;;;;;;;1.55;1.50;;;15.80;99.90;;;;;;5052835;28;20205;-87
2022/08/22 07:53:42;;;;;;;1.73;1.60;;;15.90;99.90;;;;;;5052277;28;20248;-86
2022/08/22 07:56:15;;;;;;;1.63;1.52;;;16.00;99.90;;;;;;5052515;28;20272;-87
2022/08/22 07:58:47;;;;;;;1.45;1.35;;;16.00;99.90;;;;;;5052689;28;20206;-87
2022/08/22 08:01:19;;;;;;;2.05;1.80;;;16.00;99.90;;;;;;5052540;28;20225;-86
2022/08/22 08:03:55;;;;;;;2.60;1.83;;;16.10;99.90;;;;;;5052805;28;20236;-86
2022/08/22 08:06:27;;;;;;;1.60;1.50;;;16.00;99.90;;;;;;5052574;28;20205;-87
2022/08/22 08:08:57;;;;;;;1.85;1.70;;;16.10;99.90;;;;;;5052287;28;20289;-87
2022/08/22 08:11:29;;;;;;;2.33;1.60;;;16.10;99.90;;;;;;5052648;28;20288;-87
2022/08/22 08:14:01;;;;;;;1.80;1.70;;;16.10;99.90;;;;;;5056006;28;20309;-86
2022/08/22 08:16:40;;;;;;;1.88;1.77;;;16.20;99.90;;;;;;5056877;28;20256;-86
2022/08/22 08:19:10;;;;;;;1.67;1.58;;;16.30;99.90;;;;;;5056346;28;20252;-87
2022/08/22 08:21:42;;;;;;;2.10;2.00;;;16.40;99.90;;;;;;5056165;28;20240;-86
2022/08/22 08:24:18;;;;;;;1.95;1.85;;;16.40;99.90;;;;;;5056123;28;20221;-87
2022/08/22 08:29:35;;;;;;;1.70;1.60;;;16.40;99.90;;;;;;5056214;28;20255;-86
2022/08/22 08:32:06;;;;;;;1.70;1.60;;;16.30;99.90;;;;;;5055928;28;20253;-86
2022/08/22 08:34:37;;;;;;;1.33;1.33;;;16.40;99.90;;;;;;5056149;28;20241;-87
2022/08/22 08:37:15;;;;;;;1.70;1.60;;;16.50;99.90;;;;;;5055545;28;20269;-86
2022/08/22 08:39:49;;;;;;;1.58;1.48;;;16.40;99.90;;;;;;5055865;28;20209;-86
2022/08/22 08:43:25;;;;;;;1.48;1.40;;;16.30;99.90;;;;;;5055666;28;20220;-85
2022/08/22 08:46:00;;;;;;;1.35;1.25;;;16.30;99.90;;;;;;5055728;28;20284;-87
2022/08/22 08:48:51;;;;;;;2.17;1.27;;;16.20;99.90;;;;;;5055457;28;20205;-87
2022/08/22 08:51:42;;;;;;;1.10;1.10;;;16.20;99.90;;;;;;5055545;28;20316;-86
2022/08/22 08:54:22;;;;;;;1.20;1.20;;;16.20;99.90;;;;;;5055297;28;20249;-86
2022/08/22 08:56:58;;;;;;;1.58;1.48;;;16.10;99.90;;;;;;5054937;28;20278;-87
2022/08/22 08:59:37;;;;;;;1.33;1.33;;;16.10;99.90;;;;;;5055364;28;20233;-87
2022/08/22 09:02:30;;;;;;;1.10;1.10;;;16.10;99.90;;;;;;5055336;28;20259;-86
2022/08/22 09:05:43;;;;;;;1.48;1.40;;;16.10;99.90;;;;;;5055397;28;20216;-87
2022/08/22 09:08:41;;;;;;;2.53;2.33;;;16.10;99.90;;;;;;5045796;28;20217;-86
2022/08/22 09:11:45;;;;;;;1.60;1.50;;;16.10;99.90;;;;;;5054987;28;20300;-88
2022/08/22 09:14:31;;;;;;;1.80;1.70;;;16.10;99.90;;;;;;5054777;28;20312;-87
2022/08/22 09:17:31;;;;;;;1.27;1.27;;;16.20;99.90;;;;;;5055147;28;20252;-87
2022/08/22 09:20:25;;;;;;;1.85;1.75;;;16.20;99.90;;;;;;5054875;28;20212;-86
2022/08/22 09:23:17;;;;;;;1.58;1.48;;;16.30;99.90;;;;;;5055103;28;20218;-87
2022/08/22 09:25:49;;;;;;;1.67;1.58;;;16.30;99.90;;;;;;5054987;28;20238;-87
2022/08/22 09:28:25;;;;;;;1.50;1.45;;;16.30;99.90;;;;;;5055328;28;20289;-87
2022/08/22 09:31:11;;;;;;;1.55;1.45;;;16.40;99.90;;;;;;5054824;28;20335;-87
2022/08/22 09:34:07;;;;;;;1.40;1.30;;;16.30;99.90;;;;;;5054540;28;20225;-87
2022/08/22 09:36:49;;;;;;;1.63;1.52;;;16.40;99.90;;;;;;5054814;28;20206;-87
2022/08/22 09:39:24;;;;;;;1.00;1.00;;;16.40;99.90;;;;;;5054565;28;20232;-87
2022/08/22 09:41:58;;;;;;;1.20;1.10;;;16.40;99.90;;;;;;5054847;28;20308;-86
2022/08/22 09:44:38;;;;;;;1.80;1.70;;;16.40;99.90;;;;;;5054634;28;20279;-88
2022/08/22 09:47:18;;;;;;;1.40;1.30;;;16.50;99.90;;;;;;5054549;28;20217;-87
2022/08/22 09:50:03;;;;;;;1.40;1.30;;;16.50;99.90;;;;;;5054368;28;20232;-85
2022/08/22 09:53:03;;;;;;;1.20;1.10;;;16.50;99.90;;;;;;5054456;28;20249;-87
2022/08/22 09:55:40;;;;;;;1.10;1.10;;;16.50;99.90;;;;;;5059475;28;20224;-87
2022/08/22 09:58:19;;;;;;;1.40;1.30;;;16.50;99.90;;;;;;5058376;28;20229;-87
2022/08/22 10:00:55;;;;;;;1.00;1.00;;;16.50;99.90;;;;;;5054122;28;20202;-86
2022/08/22 10:03:52;;;;;;;1.25;1.23;;;16.60;99.90;;;;;;5054291;28;20206;-86
2022/08/22 10:06:24;;;;;;;2.53;1.13;;;16.50;99.90;;;;;;5054141;28;20210;-86
2022/08/22 10:09:02;;;;;;;1.35;1.25;;;16.40;99.90;;;;;;5054248;28;20258;-87
2022/08/22 10:11:33;;;;;;;0.90;0.90;;;16.40;99.90;;;;;;5054101;28;20225;-88
2022/08/22 10:14:15;;;;;;;1.08;1.05;;;16.50;99.90;;;;;;5053976;28;20222;-87
2022/08/22 10:17:02;;;;;;;1.00;1.00;;;16.30;99.90;;;;;;5053764;28;20251;-86
2022/08/22 10:19:39;;;;;;;0.93;0.93;;;16.40;99.90;;;;;;5054146;28;20207;-87
2022/08/22 10:22:29;;;;;;;1.05;1.05;;;16.30;99.90;;;;;;5053938;28;20284;-87
2022/08/22 10:25:36;;;;;;;1.05;1.05;;;16.40;99.90;;;;;;5054242;28;20208;-86
2022/08/22 10:28:31;;;;;;;0.90;0.90;;;16.40;99.90;;;;;;5053857;28;20201;-87
2022/08/22 10:31:26;;;;;;;0.88;0.88;;;16.40;99.90;;;;;;5053698;28;20237;-86
2022/08/22 10:34:04;;;;;;;1.10;1.10;;;16.30;99.90;;;;;;5049568;28;20226;-87
2022/08/22 10:36:48;;;;;;;0.90;0.90;;;16.40;99.90;;;;;;5052958;28;20259;-87
2022/08/22 10:39:23;;;;;;;1.00;1.00;;;16.50;99.90;;;;;;5053044;28;20205;-87
2022/08/22 10:42:24;;;;;;;0.90;0.90;;;16.50;99.90;;;;;;5053856;28;20281;-87
2022/08/22 10:45:14;;;;;;;1.10;1.10;;;16.50;99.90;;;;;;5053727;28;20213;-86
2022/08/22 10:48:27;;;;;;;0.70;0.70;;;16.40;99.90;;;;;;5053274;28;20220;-87
2022/08/22 10:51:03;;;;;;;0.80;0.75;;;16.40;99.90;;;;;;5053425;28;20230;-88
2022/08/22 10:53:53;;;;;;;0.85;0.85;;;16.40;99.90;;;;;;5053129;28;20222;-87
2022/08/22 10:56:27;;;;;;;0.88;0.88;;;16.50;99.90;;;;;;5053402;28;20209;-88
2022/08/22 10:59:04;;;;;;;3.13;0.98;;;16.40;99.90;;;;;;5053207;28;20241;-87
2022/08/22 11:01:40;;;;;;;1.00;1.00;;;16.50;99.90;;;;;;5053811;28;20296;-87
2022/08/22 11:04:17;;;;;;;0.90;0.90;;;16.50;99.90;;;;;;5053583;28;20205;-86
2022/08/22 11:06:51;;;;;;;0.77;0.77;;;16.50;99.90;;;;;;5053102;28;20205;-86
2022/08/22 11:09:28;;;;;;;7.00;6.40;;;16.60;99.90;;;;;;5052778;28;20206;-87
2022/08/22 11:12:17;;;;;;;1.40;1.30;;;16.60;99.90;;;;;;5052745;28;20229;-87
2022/08/22 11:15:06;;;;;;;10.27;3.00;;;16.70;99.90;;;;;;5052873;28;20264;-87
2022/08/22 11:18:05;;;;;;;1.48;1.38;;;16.80;99.90;;;;;;5053418;28;20296;-88
2022/08/22 11:20:52;;;;;;;1.40;1.15;;;16.80;99.90;;;;;;5052694;28;20309;-87
2022/08/22 11:23:34;;;;;;;0.80;0.80;;;16.90;99.90;;;;;;5053013;28;20225;-87
2022/08/22 11:26:14;;;;;;;0.77;0.77;;;17.00;99.90;;;;;;5053387;28;20269;-86
2022/08/22 11:29:10;;;;;;;0.57;0.57;;;17.00;99.90;;;;;;5052624;28;20210;-86
2022/08/22 11:31:48;;;;;;;1.52;0.80;;;17.10;99.90;;;;;;5052512;28;20312;-86
2022/08/22 11:34:33;;;;;;;0.55;0.55;;;17.20;99.90;;;;;;5052373;28;20228;-86
2022/08/22 11:37:08;;;;;;;0.80;0.80;;;17.30;99.90;;;;;;5052590;28;20217;-87
2022/08/22 11:39:45;;;;;;;1.70;1.08;;;17.50;99.90;;;;;;5052535;28;20209;-86
2022/08/22 11:42:21;;;;;;;0.63;0.63;;;17.60;99.90;;;;;;5052919;28;20249;-86
2022/08/22 11:44:55;;;;;;;0.70;0.70;;;17.70;99.90;;;;;;5052770;28;20214;-86
2022/08/22 11:47:29;;;;;;;0.82;0.82;;;17.90;99.90;;;;;;5054958;28;20204;-86
2022/08/22 11:50:03;;;;;;;0.80;0.80;;;17.80;99.90;;;;;;5058244;28;20251;-85
2022/08/22 11:52:55;;;;;;;0.77;0.77;;;17.90;99.90;;;;;;5058818;28;20233;-85
2022/08/22 11:55:31;;;;;;;0.77;0.77;;;18.00;99.90;;;;;;5058679;28;20297;-85
2022/08/22 11:58:26;;;;;;;0.55;0.55;;;18.00;99.90;;;;;;5059284;28;20205;-85
2022/08/22 12:01:01;;;;;;;0.70;0.70;;;17.90;99.90;;;;;;5058849;28;20217;-86
2022/08/22 12:03:47;;;;;;;0.43;0.43;;;17.80;99.90;;;;;;5058803;28;20296;-87
2022/08/22 12:06:38;;;;;;;0.50;0.50;;;17.80;99.90;;;;;;5059028;28;20232;-87
2022/08/22 12:09:28;;;;;;;0.75;0.75;;;17.70;99.90;;;;;;5058509;28;20205;-85
2022/08/22 12:12:18;;;;;;;0.55;0.55;;;17.80;99.90;;;;;;5059141;28;20225;-85
2022/08/22 12:14:56;;;;;;;0.60;0.60;;;17.70;99.90;;;;;;5060342;28;20309;-85
2022/08/22 12:17:59;;;;;;;0.70;0.70;;;17.60;99.90;;;;;;5058822;28;20215;-86
2022/08/22 12:21:02;;;;;;;3.08;2.78;;;17.40;99.90;;;;;;5055004;28;20209;-87
2022/08/22 12:24:12;;;;;;;0.88;0.88;;;17.40;99.90;;;;;;5049662;28;20209;-85
2022/08/22 12:27:03;;;;;;;0.75;0.75;;;17.40;99.90;;;;;;5031293;28;20205;-87
2022/08/22 12:29:43;;;;;;;0.88;0.88;;;17.50;99.90;;;;;;5058497;28;20209;-86
2022/08/22 12:32:49;;;;;;;0.75;0.75;;;17.40;99.90;;;;;;5058600;28;20253;-86
2022/08/22 12:35:29;;;;;;;0.77;0.77;;;17.50;99.90;;;;;;5058195;28;20221;-86
2022/08/22 12:38:14;;;;;;;1.33;1.23;;;17.50;99.90;;;;;;5058724;28;20205;-86
2022/08/22 12:41:22;;;;;;;0.82;0.82;;;17.60;99.90;;;;;;5059034;28;20226;-86
2022/08/22 12:44:16;;;;;;;1.05;1.05;;;17.80;99.90;;;;;;5058233;28;20235;-87
2022/08/22 12:47:02;;;;;;;0.77;0.77;;;17.90;99.90;;;;;;5058500;28;20240;-87
2022/08/22 12:49:43;;;;;;;1.02;0.98;;;17.80;99.90;;;;;;5058227;28;20236;-87
2022/08/22 12:52:31;;;;;;;1.05;0.90;;;17.90;99.90;;;;;;5059036;28;20229;-86
2022/08/22 12:55:17;;;;;;;0.77;0.77;;;17.90;99.90;;;;;;5058539;28;20213;-86
2022/08/22 12:57:53;;;;;;;0.63;0.63;;;18.10;99.90;;;;;;5058494;28;20220;-86
2022/08/22 13:00:30;;;;;;;0.68;0.68;;;18.30;99.90;;;;;;5054465;28;20201;-86
2022/08/22 13:03:03;;;;;;;0.73;0.73;;;18.40;99.90;;;;;;5055474;28;20226;-85
2022/08/22 13:05:35;;;;;;;0.70;0.70;;;18.30;99.90;;;;;;5055263;28;20205;-87
2022/08/22 13:08:15;;;;;;;0.55;0.55;;;18.40;99.90;;;;;;5055079;28;20204;-86
2022/08/22 13:10:47;;;;;;;0.60;0.60;;;18.20;99.90;;;;;;5055020;28;20201;-86
2022/08/22 13:13:27;;;;;;;0.77;0.70;;;18.00;99.90;;;;;;5055430;28;20206;-87
2022/08/22 13:16:07;;;;;;;0.60;0.60;;;17.80;99.90;;;;;;5054807;28;20233;-86
2022/08/22 13:18:42;;;;;;;0.40;0.40;;;17.70;99.90;;;;;;5054387;28;20273;-86
2022/08/22 13:21:17;;;;;;;0.60;0.60;;;17.60;99.90;;;;;;5055244;28;20229;-86
2022/08/22 13:23:53;;;;;;;0.52;0.52;;;17.50;99.90;;;;;;5055098;28;20209;-86
2022/08/22 13:26:24;;;;;;;0.52;0.52;;;17.40;99.90;;;;;;5055138;28;20206;-86
2022/08/22 13:29:08;;;;;;;0.50;0.50;;;17.40;99.90;;;;;;5063387;28;20238;-86
2022/08/22 13:31:57;;;;;;;0.63;0.63;;;17.20;99.90;;;;;;5061154;28;20328;-86
2022/08/22 13:34:36;;;;;;;0.90;0.90;;;17.20;99.90;;;;;;5054859;28;20208;-86
2022/08/22 13:37:15;;;;;;;0.70;0.70;;;17.20;99.90;;;;;;5055118;28;20217;-87
2022/08/22 13:39:48;;;;;;;0.82;0.82;;;17.00;99.90;;;;;;5054395;28;20236;-86
2022/08/22 13:42:22;;;;;;;0.73;0.73;;;17.00;99.90;;;;;;5054548;28;20318;-86
2022/08/22 13:45:00;;;;;;;0.82;0.82;;;16.90;99.90;;;;;;5054594;28;20259;-87
2022/08/22 13:47:32;;;;;;;0.73;0.73;;;16.90;99.90;;;;;;5054332;28;20208;-87
2022/08/22 13:50:12;;;;;;;0.57;0.57;;;16.90;99.90;;;;;;5054222;28;20206;-87
2022/08/22 13:52:46;;;;;;;0.80;0.80;;;16.90;99.90;;;;;;5054421;28;20236;-86
2022/08/22 13:55:26;;;;;;;1.13;1.10;;;17.00;99.90;;;;;;5054172;28;20225;-87
2022/08/22 13:58:01;;;;;;;0.88;0.88;;;16.90;99.90;;;;;;5054280;28;20212;-86
2022/08/22 14:01:12;;;;;;;1.10;1.10;;;17.00;99.90;;;;;;5054205;28;20201;-87
2022/08/22 14:03:47;;;;;;;1.30;1.30;;;16.90;99.90;;;;;;5054224;28;20209;-86
2022/08/22 14:06:35;;;;;;;1.52;1.40;;;16.80;99.90;;;;;;5054278;28;20245;-87
2022/08/22 14:09:21;;;;;;;1.27;1.27;;;16.70;99.90;;;;;;5054077;28;20297;-86